Time;durP1;ratioP1;P1;durP2;ratioP2;P2;SDS_P1;SDS_P2;PMS_P1;PMS_P2;Temp;Humidity;BMP_temperature;BMP_pressure;BME280_temperature;BME280_humidity;BME280_pressure;Samples;Min_cycle;Max_cycle;Signal;HPM_P1;HPM_P2
2022/03/28 00:01:59;;;;;;;21.45;9.73;;;;;;;;;;5326266;28;20016;-68
2022/03/28 00:04:30;;;;;;;21.20;9.04;;;;;;;;;;5326524;28;20416;-69
2022/03/28 00:07:01;;;;;;;21.65;8.73;;;;;;;;;;5325916;28;20449;-69
2022/03/28 00:09:32;;;;;;;21.60;9.88;;;;;;;;;;5326555;28;20030;-69
2022/03/28 00:12:04;;;;;;;20.50;8.80;;;;;;;;;;5326421;28;20061;-69
2022/03/28 00:14:35;;;;;;;25.92;8.32;;;;;;;;;;5325475;28;20019;-69
2022/03/28 00:17:06;;;;;;;21.83;8.40;;;;;;;;;;5326104;28;20086;-69
2022/03/28 00:19:37;;;;;;;19.00;8.75;;;;;;;;;;5326323;28;20273;-67
2022/03/28 00:22:08;;;;;;;17.96;7.92;;;;;;;;;;5325560;28;20086;-68
2022/03/28 00:24:39;;;;;;;20.23;8.65;;;;;;;;;;5326018;28;20020;-68
2022/03/28 00:27:11;;;;;;;19.67;8.98;;;;;;;;;;5326146;28;20100;-70
2022/03/28 00:29:42;;;;;;;19.45;8.40;;;;;;;;;;5324861;28;20031;-69
2022/03/28 00:32:13;;;;;;;21.78;9.28;;;;;;;;;;5325684;28;20043;-68
2022/03/28 00:34:44;;;;;;;25.00;8.75;;;;;;;;;;5324824;28;20458;-69
2022/03/28 00:37:16;;;;;;;19.28;8.32;;;;;;;;;;5326126;28;20028;-68
2022/03/28 00:39:47;;;;;;;22.15;8.43;;;;;;;;;;5325244;28;20019;-68
2022/03/28 00:42:18;;;;;;;20.70;7.40;;;;;;;;;;5325316;28;20039;-68
2022/03/28 00:44:49;;;;;;;19.00;8.18;;;;;;;;;;5325519;28;20111;-68
2022/03/28 00:47:21;;;;;;;20.77;8.13;;;;;;;;;;5326015;28;20323;-69
2022/03/28 00:49:52;;;;;;;18.42;7.96;;;;;;;;;;5324685;28;20265;-69
2022/03/28 00:52:24;;;;;;;21.48;8.43;;;;;;;;;;5325616;28;20035;-69
2022/03/28 00:54:57;;;;;;;20.55;8.45;;;;;;;;;;5325330;28;20157;-69
2022/03/28 00:57:31;;;;;;;20.50;8.23;;;;;;;;;;5324790;28;20035;-69
2022/03/28 01:00:05;;;;;;;22.85;8.40;;;;;;;;;;5325252;28;20455;-69
2022/03/28 01:02:36;;;;;;;19.63;7.38;;;;;;;;;;5325023;28;20047;-69
2022/03/28 01:05:08;;;;;;;20.85;8.50;;;;;;;;;;5324775;28;20035;-69
2022/03/28 01:07:40;;;;;;;21.27;8.73;;;;;;;;;;5325337;28;20019;-69
2022/03/28 01:10:11;;;;;;;22.67;7.93;;;;;;;;;;5324645;28;20058;-69
2022/03/28 01:12:43;;;;;;;21.17;7.18;;;;;;;;;;5325128;28;20073;-70
2022/03/28 01:15:15;;;;;;;21.80;7.68;;;;;;;;;;5324919;28;20032;-69
2022/03/28 01:20:37;;;;;;;18.50;7.43;;;;;;;;;;5325321;28;20047;-68
2022/03/28 01:23:09;;;;;;;20.42;7.80;;;;;;;;;;5325005;28;20016;-69
2022/03/28 01:25:43;;;;;;;20.83;8.02;;;;;;;;;;5323983;28;20044;-68
2022/03/28 01:28:15;;;;;;;22.65;8.68;;;;;;;;;;5325011;28;20088;-69
2022/03/28 01:30:47;;;;;;;22.88;7.80;;;;;;;;;;5324474;28;20016;-68
2022/03/28 01:33:18;;;;;;;20.75;7.95;;;;;;;;;;5324224;28;20031;-68
2022/03/28 01:35:51;;;;;;;22.52;8.00;;;;;;;;;;5324444;28;20020;-69
2022/03/28 01:38:23;;;;;;;19.17;8.10;;;;;;;;;;5324409;28;20022;-69
2022/03/28 01:40:54;;;;;;;20.40;7.28;;;;;;;;;;5324651;28;20016;-69
2022/03/28 01:43:25;;;;;;;27.50;8.35;;;;;;;;;;5324677;28;20122;-69
2022/03/28 01:45:56;;;;;;;19.35;8.23;;;;;;;;;;5323311;28;20031;-69
2022/03/28 01:48:28;;;;;;;21.35;8.07;;;;;;;;;;5324498;28;20034;-68
2022/03/28 01:51:00;;;;;;;23.50;7.80;;;;;;;;;;5324343;28;20024;-67
2022/03/28 01:53:31;;;;;;;19.10;7.56;;;;;;;;;;5323381;28;20039;-68
2022/03/28 01:56:02;;;;;;;20.48;7.68;;;;;;;;;;5324201;28;20130;-68
2022/03/28 01:58:33;;;;;;;21.50;8.02;;;;;;;;;;5324053;28;20059;-68
2022/03/28 02:01:04;;;;;;;18.98;7.64;;;;;;;;;;5323223;28;20509;-69
2022/03/28 02:03:36;;;;;;;15.58;7.82;;;;;;;;;;5324197;28;20012;-71
2022/03/28 02:06:07;;;;;;;21.90;8.63;;;;;;;;;;5323241;28;20457;-69
2022/03/28 02:08:38;;;;;;;16.52;8.07;;;;;;;;;;5323995;28;20257;-69
2022/03/28 02:11:10;;;;;;;18.33;7.70;;;;;;;;;;5323264;28;20044;-69
2022/03/28 02:13:41;;;;;;;15.63;7.75;;;;;;;;;;5322978;28;20375;-68
2022/03/28 02:16:13;;;;;;;18.70;7.38;;;;;;;;;;5323662;28;20051;-69
2022/03/28 02:18:44;;;;;;;18.60;7.28;;;;;;;;;;5323568;28;20015;-69
2022/03/28 02:21:15;;;;;;;22.66;8.12;;;;;;;;;;5323556;28;20022;-69
2022/03/28 02:23:46;;;;;;;20.27;7.88;;;;;;;;;;5323313;28;20043;-68
2022/03/28 02:26:17;;;;;;;20.30;7.84;;;;;;;;;;5324101;28;20102;-67
2022/03/28 02:28:49;;;;;;;19.16;7.58;;;;;;;;;;5322786;28;20023;-69
2022/03/28 02:31:21;;;;;;;17.50;8.35;;;;;;;;;;5323991;28;20033;-69
2022/03/28 02:33:52;;;;;;;16.00;9.05;;;;;;;;;;5323164;28;20019;-69
2022/03/28 02:36:23;;;;;;;16.35;7.50;;;;;;;;;;5323119;28;20382;-69
2022/03/28 02:38:54;;;;;;;17.83;8.40;;;;;;;;;;5323364;28;20385;-68
2022/03/28 02:41:25;;;;;;;22.52;7.63;;;;;;;;;;5323100;28;20077;-69
2022/03/28 02:43:56;;;;;;;22.84;7.74;;;;;;;;;;5323212;28;20034;-69
2022/03/28 02:46:28;;;;;;;18.98;7.50;;;;;;;;;;5323744;28;20015;-69
2022/03/28 02:48:59;;;;;;;22.85;8.35;;;;;;;;;;5322185;28;20016;-69
2022/03/28 02:51:30;;;;;;;17.78;8.04;;;;;;;;;;5323383;28;20446;-69
2022/03/28 02:54:01;;;;;;;18.40;7.60;;;;;;;;;;5323515;28;20054;-69
2022/03/28 02:56:32;;;;;;;16.00;7.43;;;;;;;;;;5322476;28;20016;-69
2022/03/28 02:59:04;;;;;;;19.75;8.00;;;;;;;;;;5323203;28;20466;-69
2022/03/28 03:01:35;;;;;;;22.70;8.25;;;;;;;;;;5322957;28;20422;-69
2022/03/28 03:04:06;;;;;;;19.30;7.78;;;;;;;;;;5322564;28;20386;-69
2022/03/28 03:06:37;;;;;;;20.48;7.72;;;;;;;;;;5323302;28;20103;-69
2022/03/28 03:09:09;;;;;;;18.50;7.78;;;;;;;;;;5323043;28;20398;-69
2022/03/28 03:11:40;;;;;;;17.50;8.02;;;;;;;;;;5322205;28;20062;-69
2022/03/28 03:14:11;;;;;;;21.35;7.80;;;;;;;;;;5322766;28;20105;-69
2022/03/28 03:16:43;;;;;;;22.38;7.38;;;;;;;;;;5322066;28;20079;-69
2022/03/28 03:19:14;;;;;;;23.80;8.10;;;;;;;;;;5323161;28;20023;-70
2022/03/28 03:21:48;;;;;;;24.42;8.18;;;;;;;;;;5323667;28;20504;-69
2022/03/28 03:24:19;;;;;;;17.00;7.97;;;;;;;;;;5326823;28;20015;-69
2022/03/28 03:26:50;;;;;;;19.08;7.32;;;;;;;;;;5327231;28;20084;-69
2022/03/28 03:29:22;;;;;;;20.30;7.35;;;;;;;;;;5327653;28;20016;-69
2022/03/28 03:31:53;;;;;;;21.63;7.88;;;;;;;;;;5326195;28;20035;-69
2022/03/28 03:34:24;;;;;;;23.88;8.56;;;;;;;;;;5327624;28;20413;-69
2022/03/28 03:36:55;;;;;;;23.05;8.00;;;;;;;;;;5326788;28;20071;-69
2022/03/28 03:39:27;;;;;;;22.80;8.15;;;;;;;;;;5326943;28;20557;-69
2022/03/28 03:41:58;;;;;;;18.52;6.68;;;;;;;;;;5326773;28;20016;-66
2022/03/28 03:44:29;;;;;;;17.50;7.38;;;;;;;;;;5326631;28;20015;-69
2022/03/28 03:47:01;;;;;;;15.56;6.94;;;;;;;;;;5326697;28;20031;-69
2022/03/28 03:49:32;;;;;;;16.28;7.28;;;;;;;;;;5326822;28;20016;-69
2022/03/28 03:52:03;;;;;;;16.90;7.07;;;;;;;;;;5326114;28;20508;-70
2022/03/28 03:54:34;;;;;;;20.67;8.23;;;;;;;;;;5326827;28;20040;-71
2022/03/28 03:57:06;;;;;;;17.88;7.60;;;;;;;;;;5326900;28;20093;-69
2022/03/28 03:59:37;;;;;;;18.45;7.55;;;;;;;;;;5325829;28;20019;-71
2022/03/28 04:02:08;;;;;;;19.48;8.16;;;;;;;;;;5326434;28;20053;-69
2022/03/28 04:04:40;;;;;;;18.67;7.68;;;;;;;;;;5326799;28;20024;-69
2022/03/28 04:07:11;;;;;;;21.83;7.15;;;;;;;;;;5325523;28;20274;-69
2022/03/28 04:09:42;;;;;;;15.43;6.88;;;;;;;;;;5326527;28;20462;-69
2022/03/28 04:12:14;;;;;;;21.83;7.65;;;;;;;;;;5326155;28;20035;-70
2022/03/28 04:14:45;;;;;;;23.60;8.32;;;;;;;;;;5325159;28;20015;-69
2022/03/28 04:17:16;;;;;;;23.15;7.82;;;;;;;;;;5326799;28;20027;-68
2022/03/28 04:19:48;;;;;;;21.52;7.47;;;;;;;;;;5325248;28;20360;-69
2022/03/28 04:22:19;;;;;;;20.94;7.32;;;;;;;;;;5326436;28;20265;-69
2022/03/28 04:24:50;;;;;;;19.92;7.62;;;;;;;;;;5325825;28;20019;-68
2022/03/28 04:27:21;;;;;;;21.14;8.04;;;;;;;;;;5325699;28;20028;-68
2022/03/28 04:29:52;;;;;;;18.60;7.34;;;;;;;;;;5325857;28;20111;-69
2022/03/28 04:32:23;;;;;;;22.30;7.57;;;;;;;;;;5325962;28;20213;-68
2022/03/28 04:34:55;;;;;;;14.05;6.88;;;;;;;;;;5324868;28;20292;-69
2022/03/28 04:37:26;;;;;;;15.68;6.90;;;;;;;;;;5326148;28;20370;-68
2022/03/28 04:39:57;;;;;;;19.67;7.45;;;;;;;;;;5325672;28;20016;-68
2022/03/28 04:42:29;;;;;;;18.90;7.22;;;;;;;;;;5325280;28;20019;-68
2022/03/28 04:45:00;;;;;;;19.50;7.80;;;;;;;;;;5325675;28;20027;-68
2022/03/28 04:47:31;;;;;;;22.13;8.55;;;;;;;;;;5325640;28;20020;-69
2022/03/28 04:50:03;;;;;;;19.30;7.97;;;;;;;;;;5325031;28;20020;-69
2022/03/28 04:52:35;;;;;;;23.67;8.02;;;;;;;;;;5325493;28;20126;-68
2022/03/28 04:55:06;;;;;;;22.60;8.10;;;;;;;;;;5324950;28;20091;-70
2022/03/28 04:57:38;;;;;;;18.55;7.60;;;;;;;;;;5325665;28;20019;-69
2022/03/28 05:00:10;;;;;;;25.58;8.02;;;;;;;;;;5325396;28;20012;-69
2022/03/28 05:02:41;;;;;;;21.92;7.25;;;;;;;;;;5324590;28;20127;-69
2022/03/28 05:05:13;;;;;;;24.38;7.40;;;;;;;;;;5325341;28;20099;-69
2022/03/28 05:07:44;;;;;;;23.45;8.10;;;;;;;;;;5325271;28;20024;-69
2022/03/28 05:10:15;;;;;;;29.05;8.13;;;;;;;;;;5324748;28;20081;-69
2022/03/28 05:12:46;;;;;;;39.67;9.77;;;;;;;;;;5324613;28;20424;-70
2022/03/28 05:15:17;;;;;;;36.50;9.88;;;;;;;;;;5325375;28;20065;-70
2022/03/28 05:17:48;;;;;;;37.46;8.50;;;;;;;;;;5323930;28;20099;-69
2022/03/28 05:20:20;;;;;;;32.84;8.84;;;;;;;;;;5325104;28;20031;-69
2022/03/28 05:22:51;;;;;;;26.00;9.16;;;;;;;;;;5324225;28;20019;-69
2022/03/28 05:25:22;;;;;;;42.58;8.98;;;;;;;;;;5324271;28;20088;-69
2022/03/28 05:27:53;;;;;;;31.96;8.36;;;;;;;;;;5324577;28;20043;-69
2022/03/28 05:30:24;;;;;;;32.75;9.30;;;;;;;;;;5324459;28;20016;-69
2022/03/28 05:32:55;;;;;;;34.53;8.95;;;;;;;;;;5324373;28;20111;-69
2022/03/28 05:35:27;;;;;;;34.74;8.78;;;;;;;;;;5324858;28;20401;-70
2022/03/28 05:37:59;;;;;;;28.05;8.55;;;;;;;;;;5323295;28;20011;-69
2022/03/28 05:40:31;;;;;;;32.72;9.48;;;;;;;;;;5324718;28;20023;-70
2022/03/28 05:43:02;;;;;;;32.63;8.68;;;;;;;;;;5324238;28;20136;-69
2022/03/28 05:45:34;;;;;;;36.47;9.30;;;;;;;;;;5322188;28;20032;-69
2022/03/28 05:48:06;;;;;;;37.03;8.73;;;;;;;;;;5324021;28;20023;-68
2022/03/28 05:50:37;;;;;;;36.25;8.50;;;;;;;;;;5324661;28;20008;-69
2022/03/28 05:53:13;;;;;;;33.60;9.13;;;;;;;;;;5323586;28;20084;-69
2022/03/28 05:55:44;;;;;;;34.67;8.43;;;;;;;;;;5324100;28;20077;-69
2022/03/28 05:58:15;;;;;;;38.17;8.27;;;;;;;;;;5323567;28;20054;-69
2022/03/28 06:00:46;;;;;;;29.00;8.07;;;;;;;;;;5323743;28;20015;-69
2022/03/28 06:03:18;;;;;;;25.42;7.76;;;;;;;;;;5324401;28;20482;-69
2022/03/28 06:05:49;;;;;;;32.00;8.07;;;;;;;;;;5322710;28;20049;-69
2022/03/28 06:08:21;;;;;;;26.00;8.40;;;;;;;;;;5324010;28;20196;-69
2022/03/28 06:10:52;;;;;;;26.05;8.25;;;;;;;;;;5323395;28;20019;-69
2022/03/28 06:13:23;;;;;;;30.08;7.22;;;;;;;;;;5323510;28;20394;-69
2022/03/28 06:15:54;;;;;;;27.48;7.52;;;;;;;;;;5323307;28;20039;-69
2022/03/28 06:18:26;;;;;;;30.38;7.25;;;;;;;;;;5324341;28;20358;-70
2022/03/28 06:20:57;;;;;;;29.48;6.78;;;;;;;;;;5322610;28;20098;-69
2022/03/28 06:23:28;;;;;;;24.50;6.07;;;;;;;;;;5323837;28;20034;-69
2022/03/28 06:25:59;;;;;;;22.85;6.40;;;;;;;;;;5323540;28;20688;-70
2022/03/28 06:28:30;;;;;;;26.45;6.20;;;;;;;;;;5322921;28;20462;-69
2022/03/28 06:31:02;;;;;;;22.92;6.45;;;;;;;;;;5323513;28;20339;-69
2022/03/28 06:33:34;;;;;;;30.50;6.95;;;;;;;;;;5322760;28;20145;-69
2022/03/28 06:36:05;;;;;;;26.25;7.07;;;;;;;;;;5322891;28;20027;-67
2022/03/28 06:38:36;;;;;;;23.67;5.82;;;;;;;;;;5323261;28;20069;-68
2022/03/28 06:41:09;;;;;;;26.05;6.22;;;;;;;;;;5320800;28;20023;-68
2022/03/28 06:43:40;;;;;;;27.30;6.70;;;;;;;;;;5323186;28;20019;-68
2022/03/28 06:46:11;;;;;;;28.13;6.32;;;;;;;;;;5323313;28;20081;-68
2022/03/28 06:48:42;;;;;;;25.27;6.07;;;;;;;;;;5322317;28;20268;-68
2022/03/28 06:51:13;;;;;;;24.45;6.57;;;;;;;;;;5323151;28;20376;-68
2022/03/28 06:53:48;;;;;;;21.13;6.72;;;;;;;;;;5322948;28;20039;-69
2022/03/28 06:56:20;;;;;;;24.98;6.68;;;;;;;;;;5322567;28;20336;-69
2022/03/28 06:58:52;;;;;;;22.23;6.55;;;;;;;;;;5322694;28;20439;-69
2022/03/28 07:01:23;;;;;;;19.13;5.80;;;;;;;;;;5323483;28;20042;-69
2022/03/28 07:03:55;;;;;;;23.60;6.93;;;;;;;;;;5322283;28;20016;-69
2022/03/28 07:06:26;;;;;;;24.38;7.45;;;;;;;;;;5323617;28;20336;-69
2022/03/28 07:08:57;;;;;;;23.88;7.15;;;;;;;;;;5322041;28;20069;-69
2022/03/28 07:11:28;;;;;;;19.58;6.07;;;;;;;;;;5323192;28;20281;-69
2022/03/28 07:14:00;;;;;;;24.02;8.25;;;;;;;;;;5323084;28;20072;-68
2022/03/28 07:16:31;;;;;;;23.58;6.88;;;;;;;;;;5321968;28;20036;-68
2022/03/28 07:19:03;;;;;;;23.05;7.35;;;;;;;;;;5323060;28;20012;-68
2022/03/28 07:21:34;;;;;;;18.55;7.20;;;;;;;;;;5322996;28;20019;-68
2022/03/28 07:24:05;;;;;;;22.48;7.28;;;;;;;;;;5322081;28;20024;-69
2022/03/28 07:26:36;;;;;;;23.02;7.78;;;;;;;;;;5323128;28;20023;-70
2022/03/28 07:29:08;;;;;;;23.10;7.97;;;;;;;;;;5323009;28;20057;-69
2022/03/28 07:31:40;;;;;;;28.92;8.43;;;;;;;;;;5321764;28;20295;-69
2022/03/28 07:37:02;;;;;;;26.05;8.45;;;;;;;;;;5322486;28;20023;-69
2022/03/28 07:39:34;;;;;;;22.60;7.88;;;;;;;;;;5322703;28;20460;-69
2022/03/28 07:42:07;;;;;;;27.10;8.82;;;;;;;;;;5322677;28;20012;-69
2022/03/28 07:44:39;;;;;;;24.25;8.50;;;;;;;;;;5321765;28;20019;-69
2022/03/28 07:47:10;;;;;;;19.35;8.63;;;;;;;;;;5322846;28;20026;-69
2022/03/28 07:49:42;;;;;;;24.15;8.93;;;;;;;;;;5322814;28;20159;-69
2022/03/28 07:52:14;;;;;;;29.80;9.93;;;;;;;;;;5321930;28;20031;-69
2022/03/28 07:54:46;;;;;;;25.63;9.18;;;;;;;;;;5322118;28;20099;-69
2022/03/28 07:57:17;;;;;;;18.80;8.57;;;;;;;;;;5322948;28;20530;-69
2022/03/28 07:59:48;;;;;;;22.48;8.68;;;;;;;;;;5321246;28;20020;-70
2022/03/28 08:02:20;;;;;;;21.70;8.98;;;;;;;;;;5322878;28;20020;-70
2022/03/28 08:04:51;;;;;;;26.85;9.30;;;;;;;;;;5321644;28;20489;-70
2022/03/28 08:07:22;;;;;;;19.27;10.15;;;;;;;;;;5323513;28;20019;-70
2022/03/28 08:09:54;;;;;;;22.60;8.87;;;;;;;;;;5326046;28;20050;-70
2022/03/28 08:12:25;;;;;;;24.92;9.20;;;;;;;;;;5326019;28;20360;-70
2022/03/28 08:14:56;;;;;;;27.10;11.20;;;;;;;;;;5325803;28;20061;-68
2022/03/28 08:17:28;;;;;;;25.63;10.67;;;;;;;;;;5326720;28;20038;-68
2022/03/28 08:19:59;;;;;;;25.70;9.82;;;;;;;;;;5325273;28;20261;-68
2022/03/28 08:22:30;;;;;;;27.30;10.30;;;;;;;;;;5326147;28;20123;-70
2022/03/28 08:25:02;;;;;;;24.50;9.80;;;;;;;;;;5326045;28;20378;-68
2022/03/28 08:27:33;;;;;;;21.42;10.32;;;;;;;;;;5325162;28;20019;-69
2022/03/28 08:30:05;;;;;;;25.85;10.57;;;;;;;;;;5325478;28;20084;-69
2022/03/28 08:32:36;;;;;;;30.52;10.10;;;;;;;;;;5325704;28;20342;-69
2022/03/28 08:35:07;;;;;;;29.70;13.03;;;;;;;;;;5325313;28;20034;-69
2022/03/28 08:37:38;;;;;;;27.75;11.15;;;;;;;;;;5326028;28;20266;-69
2022/03/28 08:40:10;;;;;;;26.23;12.07;;;;;;;;;;5324973;28;20042;-69
2022/03/28 08:42:41;;;;;;;27.63;13.05;;;;;;;;;;5325827;28;20389;-68
2022/03/28 08:45:14;;;;;;;31.67;12.38;;;;;;;;;;5325620;28;20020;-68
2022/03/28 08:47:47;;;;;;;30.52;14.70;;;;;;;;;;5324746;28;20031;-68
2022/03/28 08:50:18;;;;;;;30.73;13.38;;;;;;;;;;5326227;28;20008;-69
2022/03/28 08:52:49;;;;;;;23.60;11.98;;;;;;;;;;5324927;28;20058;-70
2022/03/28 08:55:21;;;;;;;27.60;13.95;;;;;;;;;;5325138;28;20280;-69
2022/03/28 08:57:52;;;;;;;28.05;12.48;;;;;;;;;;5325162;28;20330;-69
2022/03/28 09:00:23;;;;;;;27.80;14.00;;;;;;;;;;5325737;28;20038;-69
2022/03/28 09:02:55;;;;;;;24.90;13.38;;;;;;;;;;5324449;28;20615;-69
2022/03/28 09:05:31;;;;;;;36.03;16.83;;;;;;;;;;5325840;28;20317;-69
2022/03/28 09:08:03;;;;;;;31.48;15.88;;;;;;;;;;5324537;28;20138;-69
2022/03/28 09:10:35;;;;;;;28.15;14.82;;;;;;;;;;5325470;28;20441;-69
2022/03/28 09:13:08;;;;;;;34.38;14.98;;;;;;;;;;5325279;28;20110;-69
2022/03/28 09:15:55;;;;;;;37.17;16.13;;;;;;;;;;5324322;28;20563;-69
2022/03/28 09:18:26;;;;;;;33.65;16.42;;;;;;;;;;5324986;28;20035;-69
2022/03/28 09:20:57;;;;;;;28.70;15.93;;;;;;;;;;5324045;28;20095;-70
2022/03/28 09:23:38;;;;;;;31.75;16.23;;;;;;;;;;5324521;28;20278;-69
2022/03/28 09:26:16;;;;;;;28.35;16.48;;;;;;;;;;5324932;28;20020;-70
2022/03/28 09:28:48;;;;;;;34.58;16.33;;;;;;;;;;5324606;28;20480;-70
2022/03/28 09:31:34;;;;;;;31.58;15.60;;;;;;;;;;5324662;28;20023;-69
2022/03/28 09:34:08;;;;;;;32.35;14.68;;;;;;;;;;5324936;28;20023;-69
2022/03/28 09:36:44;;;;;;;28.60;14.60;;;;;;;;;;5323984;28;20023;-68
2022/03/28 09:39:18;;;;;;;30.27;14.95;;;;;;;;;;5325091;28;20466;-69
2022/03/28 09:42:09;;;;;;;28.73;15.05;;;;;;;;;;5324255;28;20030;-68
2022/03/28 09:44:49;;;;;;;30.30;14.50;;;;;;;;;;5323894;28;20054;-68
2022/03/28 09:47:23;;;;;;;26.27;14.68;;;;;;;;;;5324923;28;20490;-69
2022/03/28 09:49:57;;;;;;;28.48;15.05;;;;;;;;;;5324048;28;20023;-69
2022/03/28 09:52:32;;;;;;;29.42;15.63;;;;;;;;;;5323931;28;20051;-68
2022/03/28 09:55:06;;;;;;;25.75;15.50;;;;;;;;;;5324527;28;20012;-69
2022/03/28 09:57:37;;;;;;;28.15;17.25;;;;;;;;;;5323601;28;20019;-69
2022/03/28 10:00:14;;;;;;;30.60;18.05;;;;;;;;;;5324303;28;20015;-70
2022/03/28 10:02:46;;;;;;;27.95;17.67;;;;;;;;;;5324100;28;20153;-72
2022/03/28 10:05:19;;;;;;;27.17;17.48;;;;;;;;;;5323779;28;20047;-69
2022/03/28 10:07:51;;;;;;;29.73;16.98;;;;;;;;;;5323881;28;20175;-69
2022/03/28 10:10:24;;;;;;;32.42;20.38;;;;;;;;;;5324232;28;20008;-69
2022/03/28 10:12:55;;;;;;;34.70;20.35;;;;;;;;;;5322394;28;20027;-68
2022/03/28 10:15:26;;;;;;;34.72;21.40;;;;;;;;;;5324143;28;20036;-68
2022/03/28 10:17:58;;;;;;;31.92;21.20;;;;;;;;;;5323478;28;20461;-69
2022/03/28 10:20:29;;;;;;;34.95;20.45;;;;;;;;;;5322684;28;20008;-69
2022/03/28 10:23:00;;;;;;;41.15;20.90;;;;;;;;;;5323404;28;20542;-70
2022/03/28 10:25:31;;;;;;;32.55;21.88;;;;;;;;;;5322755;28;20019;-69
2022/03/28 10:28:03;;;;;;;33.47;21.35;;;;;;;;;;5323441;28;20124;-69
2022/03/28 10:30:34;;;;;;;32.33;20.98;;;;;;;;;;5323049;28;20412;-69
2022/03/28 10:33:16;;;;;;;35.78;21.08;;;;;;;;;;5322485;28;20080;-69
2022/03/28 10:36:06;;;;;;;32.95;20.52;;;;;;;;;;5322949;28;20039;-69
2022/03/28 10:38:37;;;;;;;34.88;19.45;;;;;;;;;;5323334;28;20039;-70
2022/03/28 10:41:14;;;;;;;34.70;20.25;;;;;;;;;;5322409;28;20087;-69
2022/03/28 10:43:46;;;;;;;34.15;19.90;;;;;;;;;;5322768;28;20031;-69
2022/03/28 10:46:19;;;;;;;31.35;18.83;;;;;;;;;;5323646;28;20156;-69
2022/03/28 10:49:00;;;;;;;32.72;19.10;;;;;;;;;;5322157;28;20015;-69
2022/03/28 10:51:32;;;;;;;31.15;20.48;;;;;;;;;;5323162;28;20054;-69
2022/03/28 10:54:05;;;;;;;32.90;19.48;;;;;;;;;;5322647;28;20012;-67
2022/03/28 10:56:37;;;;;;;34.85;20.80;;;;;;;;;;5323038;28;20019;-68
2022/03/28 10:59:18;;;;;;;31.73;19.58;;;;;;;;;;5323351;28;20014;-68
2022/03/28 11:01:52;;;;;;;37.70;21.85;;;;;;;;;;5322312;28;20485;-69
2022/03/28 11:04:23;;;;;;;31.52;19.27;;;;;;;;;;5323580;28;20319;-68
2022/03/28 11:07:04;;;;;;;30.88;19.20;;;;;;;;;;5322836;28;20023;-69
2022/03/28 11:09:43;;;;;;;29.42;19.88;;;;;;;;;;5322249;28;20028;-69
2022/03/28 11:12:16;;;;;;;36.58;21.42;;;;;;;;;;5323174;28;20038;-69
2022/03/28 11:14:50;;;;;;;31.92;20.15;;;;;;;;;;5321728;28;20054;-69
2022/03/28 11:17:37;;;;;;;30.90;18.75;;;;;;;;;;5323026;28;20370;-68
2022/03/28 11:20:12;;;;;;;26.25;18.00;;;;;;;;;;5323271;28;20024;-69
2022/03/28 11:22:49;;;;;;;28.42;17.95;;;;;;;;;;5322480;28;20027;-69
2022/03/28 11:25:27;;;;;;;29.30;18.65;;;;;;;;;;5323197;28;20049;-69
2022/03/28 11:28:01;;;;;;;27.92;17.15;;;;;;;;;;5323011;28;20351;-68
2022/03/28 11:30:56;;;;;;;25.40;17.23;;;;;;;;;;5322489;28;20022;-69
2022/03/28 11:33:35;;;;;;;24.92;16.23;;;;;;;;;;5312012;28;20045;-69
2022/03/28 11:36:06;;;;;;;26.83;17.02;;;;;;;;;;5321954;28;20020;-69
2022/03/28 11:38:39;;;;;;;27.70;18.03;;;;;;;;;;5322891;28;20019;-68
2022/03/28 11:41:12;;;;;;;25.70;17.00;;;;;;;;;;5322713;28;20260;-68
2022/03/28 11:43:44;;;;;;;30.25;18.33;;;;;;;;;;5324497;28;20378;-68
2022/03/28 11:46:20;;;;;;;27.55;17.98;;;;;;;;;;5327176;28;20016;-68
2022/03/28 11:48:52;;;;;;;27.17;17.27;;;;;;;;;;5326771;28;20085;-69
2022/03/28 11:51:25;;;;;;;31.85;17.70;;;;;;;;;;5326404;28;20019;-68
2022/03/28 11:53:57;;;;;;;25.40;17.17;;;;;;;;;;5326630;28;20462;-68
2022/03/28 11:56:29;;;;;;;24.23;17.00;;;;;;;;;;5327184;28;20077;-68
2022/03/28 11:59:03;;;;;;;29.80;17.92;;;;;;;;;;5325826;28;20024;-67
2022/03/28 12:01:36;;;;;;;79.30;19.70;;;;;;;;;;5326887;28;20411;-67
2022/03/28 12:04:07;;;;;;;76.32;18.15;;;;;;;;;;5325903;28;20024;-67
2022/03/28 12:06:38;;;;;;;28.13;15.50;;;;;;;;;;5326723;28;20020;-68
2022/03/28 12:09:14;;;;;;;27.70;14.90;;;;;;;;;;5326524;28;20019;-67
2022/03/28 12:11:50;;;;;;;20.83;11.98;;;;;;;;;;5325818;28;20462;-67
2022/03/28 12:14:22;;;;;;;49.70;14.02;;;;;;;;;;5326990;28;20374;-67
2022/03/28 12:16:54;;;;;;;25.27;14.20;;;;;;;;;;5325585;28;20051;-66
2022/03/28 12:19:26;;;;;;;25.90;15.27;;;;;;;;;;5325723;28;20024;-66
2022/03/28 12:22:12;;;;;;;22.58;13.82;;;;;;;;;;5325732;28;20022;-69
2022/03/28 12:24:52;;;;;;;25.33;15.55;;;;;;;;;;5326450;28;20111;-66
2022/03/28 12:27:25;;;;;;;24.95;15.50;;;;;;;;;;5325442;28;20047;-66
2022/03/28 12:29:56;;;;;;;23.42;15.43;;;;;;;;;;5325703;28;20012;-67
2022/03/28 12:32:27;;;;;;;23.60;14.80;;;;;;;;;;5325606;28;20032;-67
2022/03/28 12:34:59;;;;;;;21.20;13.68;;;;;;;;;;5326004;28;20273;-66
2022/03/28 12:37:32;;;;;;;29.60;15.73;;;;;;;;;;5325709;28;20031;-67
2022/03/28 12:40:04;;;;;;;23.40;14.40;;;;;;;;;;5325165;28;20258;-67
2022/03/28 12:42:35;;;;;;;24.52;14.60;;;;;;;;;;5325607;28;20038;-67
2022/03/28 12:45:06;;;;;;;21.77;14.02;;;;;;;;;;5326026;28;20018;-65
2022/03/28 12:47:38;;;;;;;22.08;14.13;;;;;;;;;;5325011;28;20084;-67
2022/03/28 12:50:10;;;;;;;25.42;13.27;;;;;;;;;;5325197;28;20035;-67
2022/03/28 12:52:43;;;;;;;28.15;14.40;;;;;;;;;;5325694;28;20038;-67
2022/03/28 12:55:23;;;;;;;23.55;14.45;;;;;;;;;;5324270;28;20027;-67
2022/03/28 12:57:56;;;;;;;21.42;14.15;;;;;;;;;;5325349;28;20480;-67
2022/03/28 13:00:27;;;;;;;26.83;14.77;;;;;;;;;;5325131;28;20028;-68
2022/03/28 13:03:01;;;;;;;21.90;13.93;;;;;;;;;;5324729;28;20110;-68
2022/03/28 13:05:34;;;;;;;28.25;14.57;;;;;;;;;;5324795;28;20072;-67
2022/03/28 13:08:10;;;;;;;23.92;14.57;;;;;;;;;;5324625;28;20110;-68
2022/03/28 13:10:42;;;;;;;32.50;14.60;;;;;;;;;;5325467;28;20026;-68
2022/03/28 13:13:13;;;;;;;23.45;13.68;;;;;;;;;;5324556;28;20031;-67
2022/03/28 13:15:44;;;;;;;22.98;12.95;;;;;;;;;;5324032;28;20044;-69
2022/03/28 13:18:21;;;;;;;20.42;13.27;;;;;;;;;;5325466;28;20027;-68
2022/03/28 13:20:54;;;;;;;22.42;12.68;;;;;;;;;;5324981;28;20051;-68
2022/03/28 13:23:26;;;;;;;20.50;12.68;;;;;;;;;;5324484;28;20015;-68
2022/03/28 13:26:09;;;;;;;18.65;13.23;;;;;;;;;;5324401;28;20026;-68
2022/03/28 13:28:43;;;;;;;21.42;13.93;;;;;;;;;;5324266;28;20041;-68
2022/03/28 13:31:15;;;;;;;22.13;13.55;;;;;;;;;;5325212;28;20030;-68
2022/03/28 13:33:46;;;;;;;20.80;12.85;;;;;;;;;;5324906;28;20095;-68
2022/03/28 13:36:17;;;;;;;21.35;12.98;;;;;;;;;;5324301;28;20110;-68
2022/03/28 13:38:49;;;;;;;21.45;13.82;;;;;;;;;;5324338;28;20496;-67
2022/03/28 13:41:20;;;;;;;26.40;14.30;;;;;;;;;;5325035;28;20024;-68
2022/03/28 13:43:52;;;;;;;23.05;14.15;;;;;;;;;;5323268;28;20037;-68
2022/03/28 13:46:23;;;;;;;25.50;14.65;;;;;;;;;;5324814;28;20481;-68
2022/03/28 13:48:56;;;;;;;23.05;14.38;;;;;;;;;;5324311;28;20110;-68
2022/03/28 13:51:28;;;;;;;24.23;14.02;;;;;;;;;;5323752;28;20027;-69
2022/03/28 13:53:59;;;;;;;23.77;14.90;;;;;;;;;;5323998;28;20484;-70
2022/03/28 13:56:31;;;;;;;23.73;14.30;;;;;;;;;;5323889;28;20088;-67
2022/03/28 13:59:03;;;;;;;23.17;14.00;;;;;;;;;;5315274;28;20469;-69
2022/03/28 14:01:34;;;;;;;23.75;14.77;;;;;;;;;;5302065;28;20528;-69
2022/03/28 14:04:08;;;;;;;27.13;14.32;;;;;;;;;;5301811;28;20024;-69
2022/03/28 14:06:39;;;;;;;27.65;15.05;;;;;;;;;;5302582;28;20572;-70
2022/03/28 14:09:11;;;;;;;21.75;14.23;;;;;;;;;;5302828;28;20111;-71
2022/03/28 14:11:42;;;;;;;27.98;14.18;;;;;;;;;;5302116;28;20386;-70
2022/03/28 14:14:13;;;;;;;24.48;14.52;;;;;;;;;;5302888;28;20087;-70
2022/03/28 14:16:45;;;;;;;24.00;15.52;;;;;;;;;;5301802;28;20075;-71
2022/03/28 14:19:16;;;;;;;27.92;14.65;;;;;;;;;;5301720;28;20478;-70
2022/03/28 14:21:47;;;;;;;26.10;14.90;;;;;;;;;;5301751;28;20034;-70
2022/03/28 14:24:19;;;;;;;25.27;14.40;;;;;;;;;;5302814;28;20620;-69
2022/03/28 14:26:51;;;;;;;21.00;14.13;;;;;;;;;;5301137;28;20019;-70
2022/03/28 14:29:23;;;;;;;20.67;13.45;;;;;;;;;;5302583;28;20023;-69
2022/03/28 14:31:54;;;;;;;24.77;14.88;;;;;;;;;;5301319;28;20027;-69
2022/03/28 14:34:25;;;;;;;23.85;14.70;;;;;;;;;;5303041;28;20020;-69
2022/03/28 14:36:56;;;;;;;23.58;15.30;;;;;;;;;;5302062;28;20250;-69
2022/03/28 14:39:28;;;;;;;24.50;15.13;;;;;;;;;;5301688;28;20481;-69
2022/03/28 14:41:59;;;;;;;23.47;14.60;;;;;;;;;;5302357;28;20016;-70
2022/03/28 14:44:30;;;;;;;24.20;13.50;;;;;;;;;;5302305;28;20266;-68
2022/03/28 14:47:02;;;;;;;21.40;13.43;;;;;;;;;;5301499;28;20070;-68
2022/03/28 14:49:33;;;;;;;23.30;12.40;;;;;;;;;;5302603;28;20375;-69
2022/03/28 14:52:05;;;;;;;25.65;13.27;;;;;;;;;;5302349;28;20044;-68
2022/03/28 14:54:37;;;;;;;21.95;12.45;;;;;;;;;;5301516;28;20150;-69
2022/03/28 14:57:08;;;;;;;22.23;11.95;;;;;;;;;;5302172;28;20103;-68
2022/03/28 14:59:40;;;;;;;19.73;11.33;;;;;;;;;;5301669;28;20024;-68